Time,TemperatureF,DewpointF,PressureIn,WindDirection,WindDirectionDegrees,WindSpeedMPH,WindSpeedGustMPH,Humidity,HourlyPrecipIn,Conditions,Clouds,dailyrainin,SoftwareType,DateUTC
2013-07-23 00:00:00,67.4,59.6,29.57,NW,325,1.7,3.5,76,0.00,CLR,SKC,0.00,WeatherDisplay:10.37,2013-07-23 05:00:00,
2013-07-23 00:05:00,67.2,59.4,29.57,NW,325,0.5,2.3,76,0.00,CLR,SKC,0.00,WeatherDisplay:10.37,2013-07-23 05:05:00,
2013-07-23 00:11:00,67.0,59.2,29.57,NW,325,0.5,2.3,76,0.00,CLR,SKC,0.00,WeatherDisplay:10.37,2013-07-23 05:11:00,
2013-07-23 00:16:00,66.8,59.0,29.57,NW,325,1.1,3.0,76,0.00,CLR,SKC,0.00,WeatherDisplay:10.37,2013-07-23 05:16:00,
2013-07-23 00:21:00,66.7,58.9,29.57,NW,325,1.0,3.0,76,0.00,CLR,SKC,0.00,WeatherDisplay:10.37,2013-07-23 05:21:00,
2013-07-23 00:26:00,66.7,58.9,29.57,NW,325,0.8,2.3,76,0.00,CLR,SKC,0.00,WeatherDisplay:10.37,2013-07-23 05:26:00,
2013-07-23 00:31:00,66.6,58.8,29.57,NW,325,0.1,2.3,76,0.00,CLR,SKC,0.00,WeatherDisplay:10.37,2013-07-23 05:31:00,
2013-07-23 00:36:00,66.4,58.6,29.57,NW,325,0.0,3.0,76,0.00,CLR,SKC,0.00,WeatherDisplay:10.37,2013-07-23 05:36:00,
2013-07-23 00:41:00,66.3,58.5,29.57,NW,325,0.6,2.3,76,0.00,CLR,SKC,0.00,WeatherDisplay:10.37,2013-07-23 05:41:00,
2013-07-23 00:46:00,66.1,58.3,29.57,NW,325,0.3,1.2,76,0.00,CLR,SKC,0.00,WeatherDisplay:10.37,2013-07-23 05:46:00,
2013-07-23 00:51:00,66.0,58.2,29.57,NW,325,0.4,2.3,76,0.00,CLR,SKC,0.00,WeatherDisplay:10.37,2013-07-23 05:51:00,
2013-07-23 00:56:00,65.9,58.1,29.57,NW,325,0.3,2.3,76,0.00,CLR,SKC,0.00,WeatherDisplay:10.37,2013-07-23 05:56:00,
2013-07-23 01:01:00,65.8,58.0,29.57,NW,325,0.2,2.0,76,0.00,CLR,SKC,0.00,WeatherDisplay:10.37,2013-07-23 06:01:00,
2013-07-23 01:06:00,65.6,57.8,29.58,NW,325,0.3,2.3,76,0.00,CLR,SKC,0.00,WeatherDisplay:10.37,2013-07-23 06:06:00,
2013-07-23 01:11:00,65.5,57.7,29.58,NW,325,0.5,2.3,76,0.00,CLR,SKC,0.00,WeatherDisplay:10.37,2013-07-23 06:11:00,
2013-07-23 01:16:00,65.3,57.5,29.58,NW,325,0.3,2.3,76,0.00,CLR,SKC,0.00,WeatherDisplay:10.37,2013-07-23 06:16:00,
2013-07-23 01:21:00,65.2,57.4,29.58,NW,325,0.0,4.0,76,0.00,CLR,SKC,0.00,WeatherDisplay:10.37,2013-07-23 06:21:00,
2013-07-23 01:26:00,65.1,57.3,29.58,NW,325,0.2,1.2,76,0.00,CLR,SKC,0.00,WeatherDisplay:10.37,2013-07-23 06:26:00,
2013-07-23 01:31:00,65.0,57.2,29.58,NW,325,0.0,0.0,76,0.00,CLR,SKC,0.00,WeatherDisplay:10.37,2013-07-23 06:31:00,
2013-07-23 01:36:00,64.8,57.1,29.57,NW,325,0.0,3.0,76,0.00,CLR,SKC,0.00,WeatherDisplay:10.37,2013-07-23 06:36:00,
2013-07-23 01:41:00,64.6,56.9,29.57,NW,325,0.0,0.0,76,0.00,CLR,SKC,0.00,WeatherDisplay:10.37,2013-07-23 06:41:00,
2013-07-23 01:46:00,64.5,56.8,29.57,NW,325,0.3,1.2,76,0.00,CLR,SKC,0.00,WeatherDisplay:10.37,2013-07-23 06:46:00,
2013-07-23 01:51:00,64.3,56.6,29.57,NW,325,0.0,1.2,76,0.00,CLR,SKC,0.00,WeatherDisplay:10.37,2013-07-23 06:51:00,
2013-07-23 01:56:00,64.2,56.5,29.58,NW,325,0.0,0.0,76,0.00,CLR,SKC,0.00,WeatherDisplay:10.37,2013-07-23 06:56:00,
2013-07-23 02:01:00,64.0,55.9,29.58,NW,325,0.0,1.2,75,0.00,CLR,SKC,0.00,WeatherDisplay:10.37,2013-07-23 07:01:00,
2013-07-23 02:06:00,64.0,55.9,29.58,NW,325,0.0,0.0,75,0.00,CLR,SKC,0.00,WeatherDisplay:10.37,2013-07-23 07:06:00,
2013-07-23 02:11:00,63.8,56.1,29.58,NW,325,0.1,1.2,76,0.00,CLR,SKC,0.00,WeatherDisplay:10.37,2013-07-23 07:11:00,
2013-07-23 02:16:00,63.8,55.7,29.58,NW,325,0.0,2.3,75,0.00,CLR,SKC,0.00,WeatherDisplay:10.37,2013-07-23 07:16:00,
2013-07-23 02:21:00,63.6,55.5,29.58,NW,325,0.7,2.0,75,0.00,CLR,SKC,0.00,WeatherDisplay:10.37,2013-07-23 07:21:00,
2013-07-23 02:26:00,63.5,55.4,29.58,NW,325,0.0,1.2,75,0.00,CLR,SKC,0.00,WeatherDisplay:10.37,2013-07-23 07:26:00,
2013-07-23 02:31:00,63.4,55.3,29.58,NW,325,0.1,1.2,75,0.00,CLR,SKC,0.00,WeatherDisplay:10.37,2013-07-23 07:31:00,
2013-07-23 02:36:00,63.3,55.2,29.58,NW,325,0.0,1.2,75,0.00,CLR,SKC,0.00,WeatherDisplay:10.37,2013-07-23 07:36:00,
2013-07-23 02:41:00,63.2,55.1,29.58,NW,325,0.0,0.0,75,0.00,CLR,SKC,0.00,WeatherDisplay:10.37,2013-07-23 07:41:00,
2013-07-23 02:46:00,63.1,55.0,29.59,NW,325,0.0,1.2,75,0.00,CLR,SKC,0.00,WeatherDisplay:10.37,2013-07-23 07:46:00,
2013-07-23 02:51:00,63.1,55.0,29.60,NW,325,0.3,1.2,75,0.00,CLR,SKC,0.00,WeatherDisplay:10.37,2013-07-23 07:51:00,
2013-07-23 02:56:00,63.1,55.0,29.59,NW,325,0.0,1.2,75,0.00,CLR,SKC,0.00,WeatherDisplay:10.37,2013-07-23 07:56:00,
2013-07-23 03:01:00,63.1,55.0,29.59,NW,325,0.0,1.2,75,0.00,CLR,SKC,0.00,WeatherDisplay:10.37,2013-07-23 08:01:00,
2013-07-23 03:06:00,63.1,55.0,29.60,NW,325,0.1,1.2,75,0.00,CLR,SKC,0.00,WeatherDisplay:10.37,2013-07-23 08:06:00,
2013-07-23 03:11:00,63.0,54.9,29.60,NW,325,0.0,0.0,75,0.00,CLR,SKC,0.00,WeatherDisplay:10.37,2013-07-23 08:11:00,
2013-07-23 03:16:00,63.0,54.9,29.59,NW,325,0.0,0.0,75,0.00,CLR,SKC,0.00,WeatherDisplay:10.37,2013-07-23 08:16:00,
2013-07-23 03:21:00,62.9,54.9,29.60,NW,325,0.0,0.0,75,0.00,CLR,SKC,0.00,WeatherDisplay:10.37,2013-07-23 08:21:00,
2013-07-23 03:26:00,62.8,54.8,29.60,NW,325,0.0,0.0,75,0.00,SCT,SKC,0.00,WeatherDisplay:10.37,2013-07-23 08:26:00,
2013-07-23 03:31:00,62.7,54.7,29.59,NW,325,0.1,1.2,75,0.00,SCT,SKC,0.00,WeatherDisplay:10.37,2013-07-23 08:31:00,
2013-07-23 03:36:00,62.6,54.6,29.59,NW,325,0.3,2.3,75,0.00,SCT,SKC,0.00,WeatherDisplay:10.37,2013-07-23 08:36:00,
2013-07-23 03:41:00,62.6,54.6,29.59,NW,325,0.3,2.3,75,0.00,SCT,SKC,0.00,WeatherDisplay:10.37,2013-07-23 08:41:00,
2013-07-23 03:46:00,62.6,54.6,29.59,NW,325,0.5,2.3,75,0.00,SCT,SKC,0.00,WeatherDisplay:10.37,2013-07-23 08:46:00,
2013-07-23 03:51:00,62.6,54.6,29.59,NW,325,0.3,1.2,75,0.00,SCT,SKC,0.00,WeatherDisplay:10.37,2013-07-23 08:51:00,
2013-07-23 03:56:00,62.6,54.6,29.59,NW,325,0.0,1.2,75,0.00,SCT,SKC,0.00,WeatherDisplay:10.37,2013-07-23 08:56:00,
2013-07-23 04:01:00,62.5,54.5,29.60,NW,325,0.6,2.3,75,0.00,CLR,SKC,0.00,WeatherDisplay:10.37,2013-07-23 09:01:00,
2013-07-23 04:06:00,62.3,54.3,29.61,NW,325,0.1,1.2,75,0.00,CLR,SKC,0.00,WeatherDisplay:10.37,2013-07-23 09:06:00,
2013-07-23 04:11:00,62.1,54.1,29.61,NW,325,0.2,2.3,75,0.00,CLR,SKC,0.00,WeatherDisplay:10.37,2013-07-23 09:11:00,
2013-07-23 04:16:00,61.9,53.9,29.61,NW,325,0.0,0.0,75,0.00,CLR,SKC,0.00,WeatherDisplay:10.37,2013-07-23 09:16:00,
2013-07-23 04:21:00,61.8,53.8,29.61,NW,325,0.2,1.2,75,0.00,CLR,SKC,0.00,WeatherDisplay:10.37,2013-07-23 09:21:00,
2013-07-23 04:26:00,61.7,53.7,29.62,NW,325,0.2,1.2,75,0.00,CLR,SKC,0.00,WeatherDisplay:10.37,2013-07-23 09:26:00,
2013-07-23 04:31:00,61.6,53.6,29.62,NW,325,0.0,1.2,75,0.00,CLR,SKC,0.00,WeatherDisplay:10.37,2013-07-23 09:31:00,
2013-07-23 04:36:00,61.3,53.3,29.63,NW,325,0.0,0.0,75,0.00,CLR,SKC,0.00,WeatherDisplay:10.37,2013-07-23 09:36:00,
2013-07-23 04:41:00,60.7,52.7,29.63,NW,325,0.0,0.0,75,0.00,CLR,SKC,0.00,WeatherDisplay:10.37,2013-07-23 09:41:00,
2013-07-23 04:46:00,60.1,52.1,29.63,NW,325,0.0,0.0,75,0.00,CLR,SKC,0.00,WeatherDisplay:10.37,2013-07-23 09:46:00,
2013-07-23 04:51:00,59.6,51.7,29.63,NW,325,0.1,1.2,75,0.00,CLR,SKC,0.00,WeatherDisplay:10.37,2013-07-23 09:51:00,
2013-07-23 04:56:00,59.3,51.4,29.64,NW,325,0.0,1.2,75,0.00,CLR,SKC,0.00,WeatherDisplay:10.37,2013-07-23 09:56:00,
2013-07-23 05:01:00,59.1,51.2,29.64,NW,325,0.0,1.2,75,0.00,CLR,SKC,0.00,WeatherDisplay:10.37,2013-07-23 10:01:00,
2013-07-23 05:06:00,59.0,51.1,29.64,NW,325,0.0,0.0,75,0.00,CLR,SKC,0.00,WeatherDisplay:10.37,2013-07-23 10:06:00,
2013-07-23 05:11:00,59.0,51.1,29.64,NW,325,0.0,0.0,75,0.00,CLR,SKC,0.00,WeatherDisplay:10.37,2013-07-23 10:11:00,
2013-07-23 05:16:00,59.0,50.7,29.64,NW,325,0.0,0.0,74,0.00,CLR,SKC,0.00,WeatherDisplay:10.37,2013-07-23 10:16:00,
2013-07-23 05:21:00,59.0,50.7,29.65,NW,325,0.0,0.0,74,0.00,CLR,SKC,0.00,WeatherDisplay:10.37,2013-07-23 10:21:00,
2013-07-23 05:26:00,58.9,50.6,29.64,NW,325,0.0,0.0,74,0.00,CLR,SKC,0.00,WeatherDisplay:10.37,2013-07-23 10:26:00,
2013-07-23 05:31:00,58.8,50.5,29.65,NW,325,0.0,0.0,74,0.00,CLR,SKC,0.00,WeatherDisplay:10.37,2013-07-23 10:31:00,
2013-07-23 05:36:00,58.7,50.4,29.65,NW,325,0.0,0.0,74,0.00,CLR,SKC,0.00,WeatherDisplay:10.37,2013-07-23 10:36:00,
2013-07-23 05:41:00,58.6,50.3,29.64,NW,325,0.0,0.0,74,0.00,CLR,SKC,0.00,WeatherDisplay:10.37,2013-07-23 10:41:00,
2013-07-23 05:46:00,58.6,50.3,29.63,NW,325,0.1,1.2,74,0.00,CLR,SKC,0.00,WeatherDisplay:10.37,2013-07-23 10:46:00,
2013-07-23 05:51:00,58.7,50.1,29.63,NW,325,0.0,1.2,73,0.00,CLR,SKC,0.00,WeatherDisplay:10.37,2013-07-23 10:51:00,
2013-07-23 05:56:00,59.0,50.4,29.63,NW,325,0.9,3.5,73,0.00,CLR,SKC,0.00,WeatherDisplay:10.37,2013-07-23 10:56:00,
2013-07-23 06:01:00,59.1,50.5,29.63,NW,325,0.0,0.0,73,0.00,CLR,SKC,0.00,WeatherDisplay:10.37,2013-07-23 11:01:00,
2013-07-23 06:06:00,59.4,51.1,29.64,NW,325,0.0,0.0,74,0.00,CLR,SKC,0.00,WeatherDisplay:10.37,2013-07-23 11:06:00,
2013-07-23 06:11:00,59.5,51.2,29.64,NW,325,0.0,1.0,74,0.00,CLR,SKC,0.00,WeatherDisplay:10.37,2013-07-23 11:11:00,
2013-07-23 06:16:00,59.5,51.2,29.64,NW,325,0.0,0.0,74,0.00,CLR,SKC,0.00,WeatherDisplay:10.37,2013-07-23 11:16:00,
2013-07-23 06:21:00,59.3,51.7,29.65,NW,325,0.0,1.2,76,0.00,CLR,SKC,0.00,WeatherDisplay:10.37,2013-07-23 11:21:00,
2013-07-23 06:26:00,58.9,51.0,29.65,NW,325,0.0,1.2,75,0.00,CLR,SKC,0.00,WeatherDisplay:10.37,2013-07-23 11:26:00,
2013-07-23 06:31:00,58.6,50.7,29.65,NW,325,0.0,0.0,75,0.00,CLR,SKC,0.00,WeatherDisplay:10.37,2013-07-23 11:31:00,
2013-07-23 06:36:00,58.5,50.2,29.65,NW,325,0.0,0.0,74,0.00,CLR,SKC,0.00,WeatherDisplay:10.37,2013-07-23 11:36:00,
2013-07-23 06:41:00,58.7,50.1,29.65,NW,325,0.5,2.3,73,0.00,CLR,SKC,0.00,WeatherDisplay:10.37,2013-07-23 11:41:00,
2013-07-23 06:46:00,59.0,50.0,29.65,NW,325,2.1,3.5,72,0.00,CLR,SKC,0.00,WeatherDisplay:10.37,2013-07-23 11:46:00,
2013-07-23 06:51:00,59.4,50.7,29.64,NW,325,1.5,3.5,73,0.00,CLR,SKC,0.00,WeatherDisplay:10.37,2013-07-23 11:51:00,
2013-07-23 06:56:00,59.7,51.4,29.65,NW,325,0.3,3.5,74,0.00,CLR,SKC,0.00,WeatherDisplay:10.37,2013-07-23 11:56:00,
2013-07-23 07:01:00,60.2,51.9,29.66,NW,325,0.0,1.2,74,0.00,CLR,SKC,0.00,WeatherDisplay:10.37,2013-07-23 12:01:00,
2013-07-23 07:06:00,60.7,52.4,29.66,NW,325,0.0,2.3,74,0.00,CLR,SKC,0.00,WeatherDisplay:10.37,2013-07-23 12:06:00,
2013-07-23 07:11:00,61.0,53.0,29.67,NW,325,0.0,2.3,75,0.00,CLR,SKC,0.00,WeatherDisplay:10.37,2013-07-23 12:11:00,
2013-07-23 07:16:00,61.3,53.3,29.67,NW,325,0.0,1.2,75,0.00,CLR,SKC,0.00,WeatherDisplay:10.37,2013-07-23 12:16:00,
2013-07-23 07:21:00,61.5,53.5,29.66,NW,325,0.0,1.2,75,0.00,CLR,SKC,0.00,WeatherDisplay:10.37,2013-07-23 12:21:00,
2013-07-23 07:26:00,61.9,53.9,29.66,NW,325,0.1,1.2,75,0.00,CLR,SKC,0.00,WeatherDisplay:10.37,2013-07-23 12:26:00,
2013-07-23 07:31:00,62.5,54.5,29.67,NW,325,0.1,1.2,75,0.00,CLR,SKC,0.00,WeatherDisplay:10.37,2013-07-23 12:31:00,
2013-07-23 07:36:00,63.0,55.3,29.67,NW,325,0.5,2.3,76,0.00,CLR,SKC,0.00,WeatherDisplay:10.37,2013-07-23 12:36:00,
2013-07-23 07:41:00,63.6,55.9,29.67,NW,325,1.5,3.5,76,0.00,CLR,SKC,0.00,WeatherDisplay:10.37,2013-07-23 12:41:00,
2013-07-23 07:46:00,64.3,56.9,29.67,NW,325,2.4,6.9,77,0.00,CLR,SKC,0.00,WeatherDisplay:10.37,2013-07-23 12:46:00,
2013-07-23 07:51:00,64.7,57.3,29.67,NW,326,2.6,5.0,77,0.00,CLR,SKC,0.00,WeatherDisplay:10.37,2013-07-23 12:51:00,
2013-07-23 07:56:00,65.1,57.3,29.67,NNW,327,0.5,2.3,76,0.00,CLR,SKC,0.00,WeatherDisplay:10.37,2013-07-23 12:56:00,
2013-07-23 08:01:00,65.6,58.2,29.67,NNW,339,4.7,8.1,77,0.00,CLR,SKC,0.00,WeatherDisplay:10.37,2013-07-23 13:01:00,
2013-07-23 08:06:00,66.3,58.5,29.67,NNW,339,2.6,8.1,76,0.00,CLR,SKC,0.00,WeatherDisplay:10.37,2013-07-23 13:06:00,
2013-07-23 08:11:00,67.0,59.2,29.67,NNW,342,3.9,6.9,76,0.00,CLR,SKC,0.00,WeatherDisplay:10.37,2013-07-23 13:11:00,
2013-07-23 08:16:00,67.4,59.2,29.67,NNW,347,3.9,9.2,75,0.00,CLR,SKC,0.00,WeatherDisplay:10.37,2013-07-23 13:16:00,
2013-07-23 08:21:00,67.6,59.0,29.67,North,355,5.6,11.5,74,0.00,CLR,SKC,0.00,WeatherDisplay:10.37,2013-07-23 13:21:00,
2013-07-23 08:26:00,67.8,59.2,29.67,North,355,6.1,9.2,74,0.00,CLR,SKC,0.00,WeatherDisplay:10.37,2013-07-23 13:26:00,
2013-07-23 08:31:00,68.1,59.1,29.67,North,355,5.7,9.2,73,0.00,CLR,SKC,0.00,WeatherDisplay:10.37,2013-07-23 13:31:00,
2013-07-23 08:36:00,68.2,59.2,29.67,North,355,5.3,10.4,73,0.00,CLR,SKC,0.00,WeatherDisplay:10.37,2013-07-23 13:36:00,
2013-07-23 08:41:00,68.5,59.1,29.68,North,350,2.4,6.9,72,0.00,CLR,SKC,0.00,WeatherDisplay:10.37,2013-07-23 13:41:00,
2013-07-23 08:46:00,68.5,58.7,29.68,North,355,3.9,6.0,71,0.00,CLR,SKC,0.00,WeatherDisplay:10.37,2013-07-23 13:46:00,
2013-07-23 08:51:00,68.6,59.2,29.68,North,355,4.9,8.1,72,0.00,CLR,SKC,0.00,WeatherDisplay:10.37,2013-07-23 13:51:00,
2013-07-23 08:56:00,68.8,58.6,29.68,North,355,3.8,10.4,70,0.00,CLR,SKC,0.00,WeatherDisplay:10.37,2013-07-23 13:56:00,
2013-07-23 09:01:00,69.2,59.4,29.68,North,355,4.2,6.0,71,0.00,CLR,SKC,0.00,WeatherDisplay:10.37,2013-07-23 14:01:00,
2013-07-23 09:06:00,69.3,59.1,29.69,North,355,3.3,5.8,70,0.00,CLR,SKC,0.00,WeatherDisplay:10.37,2013-07-23 14:06:00,
2013-07-23 09:11:00,69.7,59.9,29.69,North,355,2.1,4.6,71,0.00,CLR,SKC,0.00,WeatherDisplay:10.37,2013-07-23 14:11:00,
2013-07-23 09:16:00,70.1,59.9,29.69,North,355,2.9,5.8,70,0.00,CLR,SKC,0.00,WeatherDisplay:10.37,2013-07-23 14:16:00,
2013-07-23 09:21:00,70.4,60.1,29.69,North,355,3.0,5.8,70,0.00,CLR,SKC,0.00,WeatherDisplay:10.37,2013-07-23 14:21:00,
2013-07-23 09:26:00,70.6,60.3,29.68,North,355,5.8,8.1,70,0.00,CLR,SKC,0.00,WeatherDisplay:10.37,2013-07-23 14:26:00,
2013-07-23 09:31:00,70.6,60.3,29.69,North,360,3.4,5.8,70,0.00,CLR,SKC,0.00,WeatherDisplay:10.37,2013-07-23 14:31:00,
2013-07-23 09:36:00,70.8,60.5,29.68,North,360,1.5,6.0,70,0.00,CLR,SKC,0.00,WeatherDisplay:10.37,2013-07-23 14:36:00,
2013-07-23 09:41:00,71.4,60.7,29.69,North,355,4.0,6.0,69,0.00,CLR,SKC,0.00,WeatherDisplay:10.37,2013-07-23 14:41:00,
2013-07-23 09:46:00,71.5,60.0,29.69,North,355,4.5,6.0,67,0.00,CLR,SKC,0.00,WeatherDisplay:10.37,2013-07-23 14:46:00,
2013-07-23 09:51:00,71.7,60.6,29.69,North,355,3.8,5.0,68,0.00,CLR,SKC,0.00,WeatherDisplay:10.37,2013-07-23 14:51:00,
2013-07-23 09:56:00,71.8,60.2,29.68,NNE,13,5.0,10.4,67,0.00,CLR,SKC,0.00,WeatherDisplay:10.37,2013-07-23 14:56:00,
2013-07-23 10:01:00,71.9,60.3,29.69,North,360,3.7,8.1,67,0.00,CLR,SKC,0.00,WeatherDisplay:10.37,2013-07-23 15:01:00,
2013-07-23 10:06:00,72.0,59.6,29.68,North,355,4.5,9.2,65,0.00,CLR,SKC,0.00,WeatherDisplay:10.37,2013-07-23 15:06:00,
2013-07-23 10:11:00,72.1,60.1,29.68,North,350,4.3,7.0,66,0.00,CLR,SKC,0.00,WeatherDisplay:10.37,2013-07-23 15:11:00,
2013-07-23 10:16:00,71.7,58.9,29.68,North,355,6.6,10.4,64,0.00,CLR,SKC,0.00,WeatherDisplay:10.37,2013-07-23 15:16:00,
2013-07-23 10:21:00,72.1,59.7,29.68,North,360,4.0,12.7,65,0.00,CLR,SKC,0.00,WeatherDisplay:10.37,2013-07-23 15:21:00,
2013-07-23 10:26:00,72.6,60.2,29.68,North,355,3.5,6.9,65,0.00,CLR,SKC,0.00,WeatherDisplay:10.37,2013-07-23 15:26:00,
2013-07-23 10:31:00,72.8,59.5,29.68,North,351,4.5,7.0,63,0.00,CLR,SKC,0.00,WeatherDisplay:10.37,2013-07-23 15:31:00,
2013-07-23 10:36:00,72.8,59.0,29.69,NNW,348,6.2,10.4,62,0.00,CLR,SKC,0.00,WeatherDisplay:10.37,2013-07-23 15:36:00,
2013-07-23 10:41:00,72.7,58.5,29.69,North,355,3.7,6.9,61,0.00,CLR,SKC,0.00,WeatherDisplay:10.37,2013-07-23 15:41:00,
2013-07-23 10:46:00,73.2,61.2,29.70,North,355,2.4,5.8,66,0.00,CLR,SKC,0.00,WeatherDisplay:10.37,2013-07-23 15:46:00,
2013-07-23 10:51:00,73.9,59.1,29.70,North,360,2.9,6.0,60,0.00,CLR,SKC,0.00,WeatherDisplay:10.37,2013-07-23 15:51:00,
2013-07-23 10:56:00,74.0,58.8,29.70,North,355,3.8,9.2,59,0.00,CLR,SKC,0.00,WeatherDisplay:10.37,2013-07-23 15:56:00,
2013-07-23 11:01:00,74.0,60.2,29.70,NNW,346,5.4,9.2,62,0.00,SCT,SKC,0.00,WeatherDisplay:10.37,2013-07-23 16:01:00,
2013-07-23 11:06:00,74.0,59.2,29.70,North,355,2.4,10.4,60,0.00,SCT,SKC,0.00,WeatherDisplay:10.37,2013-07-23 16:06:00,
2013-07-23 11:11:00,74.1,58.9,29.70,North,355,1.8,5.0,59,0.00,SCT,SKC,0.00,WeatherDisplay:10.37,2013-07-23 16:11:00,
2013-07-23 11:16:00,74.1,58.4,29.70,North,355,5.8,8.1,58,0.00,SCT,SKC,0.00,WeatherDisplay:10.37,2013-07-23 16:16:00,
2013-07-23 11:21:00,74.6,59.3,29.71,North,355,5.7,9.2,59,0.00,CLR,SKC,0.00,WeatherDisplay:10.37,2013-07-23 16:21:00,
2013-07-23 11:26:00,74.9,58.6,29.71,North,350,2.2,8.1,57,0.00,CLR,SKC,0.00,WeatherDisplay:10.37,2013-07-23 16:26:00,
2013-07-23 11:31:00,74.6,58.4,29.71,North,350,2.7,6.0,57,0.00,CLR,SKC,0.00,WeatherDisplay:10.37,2013-07-23 16:31:00,
2013-07-23 11:36:00,74.7,57.5,29.71,NNW,347,5.4,10.4,55,0.00,CLR,SKC,0.00,WeatherDisplay:10.37,2013-07-23 16:36:00,
2013-07-23 11:41:00,74.8,58.5,29.71,North,5,6.0,11.5,57,0.00,CLR,SKC,0.00,WeatherDisplay:10.37,2013-07-23 16:41:00,
2013-07-23 11:46:00,74.9,58.1,29.71,North,355,5.6,11.5,56,0.00,CLR,SKC,0.00,WeatherDisplay:10.37,2013-07-23 16:46:00,
2013-07-23 11:51:00,74.9,59.1,29.71,North,360,5.0,9.2,58,0.00,CLR,SKC,0.00,WeatherDisplay:10.37,2013-07-23 16:51:00,
2013-07-23 11:57:00,75.5,58.7,29.71,North,355,5.1,11.5,56,0.00,CLR,SKC,0.00,WeatherDisplay:10.37,2013-07-23 16:57:00,
2013-07-23 12:02:00,75.6,57.8,29.71,North,355,0.7,4.6,54,0.00,CLR,SKC,0.00,WeatherDisplay:10.37,2013-07-23 17:02:00,
2013-07-23 12:07:00,75.2,57.9,29.71,North,355,1.9,8.0,55,0.00,CLR,SKC,0.00,WeatherDisplay:10.37,2013-07-23 17:07:00,
2013-07-23 12:12:00,75.0,57.7,29.71,North,355,3.5,6.9,55,0.00,CLR,SKC,0.00,WeatherDisplay:10.37,2013-07-23 17:12:00,
2013-07-23 12:17:00,74.8,56.5,29.71,North,350,0.9,3.5,53,0.00,CLR,SKC,0.00,WeatherDisplay:10.37,2013-07-23 17:17:00,
2013-07-23 12:22:00,74.6,58.4,29.71,North,5,2.5,5.8,57,0.00,CLR,SKC,0.00,WeatherDisplay:10.37,2013-07-23 17:22:00,
2013-07-23 12:27:00,74.6,57.4,29.71,North,355,0.8,3.5,55,0.00,CLR,SKC,0.00,WeatherDisplay:10.37,2013-07-23 17:27:00,
2013-07-23 12:32:00,74.4,57.7,29.71,North,355,3.3,7.0,56,0.00,CLR,SKC,0.00,WeatherDisplay:10.37,2013-07-23 17:32:00,
2013-07-23 12:37:00,74.8,60.0,29.71,North,355,3.6,6.0,60,0.00,CLR,SKC,0.00,WeatherDisplay:10.37,2013-07-23 17:37:00,
2013-07-23 12:42:00,75.2,59.4,29.71,North,360,3.2,7.0,58,0.00,CLR,SKC,0.00,WeatherDisplay:10.37,2013-07-23 17:42:00,
2013-07-23 12:47:00,75.6,59.8,29.71,North,360,0.6,3.5,58,0.00,CLR,SKC,0.00,WeatherDisplay:10.37,2013-07-23 17:47:00,
2013-07-23 12:52:00,75.3,59.0,29.70,North,355,4.2,9.2,57,0.00,CLR,SKC,0.00,WeatherDisplay:10.37,2013-07-23 17:52:00,
2013-07-23 12:57:00,74.6,58.8,29.70,NNW,348,2.8,4.0,58,0.00,CLR,SKC,0.00,WeatherDisplay:10.37,2013-07-23 17:57:00,
2013-07-23 13:02:00,74.1,58.9,29.70,North,355,3.2,6.9,59,0.00,CLR,SKC,0.00,WeatherDisplay:10.37,2013-07-23 18:02:00,
2013-07-23 13:07:00,74.0,58.8,29.70,North,360,3.1,5.0,59,0.00,CLR,SKC,0.00,WeatherDisplay:10.37,2013-07-23 18:07:00,
2013-07-23 13:12:00,74.1,58.4,29.70,North,360,2.2,6.9,58,0.00,CLR,SKC,0.00,WeatherDisplay:10.37,2013-07-23 18:12:00,
2013-07-23 13:17:00,73.7,58.0,29.70,North,360,5.1,9.2,58,0.00,CLR,SKC,0.00,WeatherDisplay:10.37,2013-07-23 18:17:00,
2013-07-23 13:22:00,73.3,57.6,29.70,North,355,4.5,6.0,58,0.00,CLR,SKC,0.00,WeatherDisplay:10.37,2013-07-23 18:22:00,
2013-07-23 13:28:00,72.7,57.5,29.70,North,355,0.8,3.5,59,0.00,CLR,SKC,0.00,WeatherDisplay:10.37,2013-07-23 18:28:00,
2013-07-23 13:34:00,72.1,57.4,29.70,North,355,1.9,5.0,60,0.00,CLR,SKC,0.00,WeatherDisplay:10.37,2013-07-23 18:34:00,
2013-07-23 13:40:00,71.8,57.2,29.70,North,355,0.5,3.5,60,0.00,CLR,SKC,0.00,WeatherDisplay:10.37,2013-07-23 18:40:00,
2013-07-23 13:45:00,71.8,58.1,29.70,North,355,1.5,5.0,62,0.00,CLR,SKC,0.00,WeatherDisplay:10.37,2013-07-23 18:45:00,
2013-07-23 13:50:00,71.8,56.7,29.70,North,355,1.5,3.5,59,0.00,CLR,SKC,0.00,WeatherDisplay:10.37,2013-07-23 18:50:00,
2013-07-23 13:55:00,71.7,58.0,29.70,North,355,0.8,2.3,62,0.00,CLR,SKC,0.00,WeatherDisplay:10.37,2013-07-23 18:55:00,
2013-07-23 14:01:00,71.5,58.7,29.70,North,9,3.6,7.0,64,0.00,CLR,SKC,0.00,WeatherDisplay:10.37,2013-07-23 19:01:00,
2013-07-23 14:06:00,71.5,57.8,29.70,North,9,2.7,4.6,62,0.00,CLR,SKC,0.00,WeatherDisplay:10.37,2013-07-23 19:06:00,
2013-07-23 14:11:00,71.4,57.7,29.71,North,9,0.9,2.3,62,0.00,CLR,SKC,0.00,WeatherDisplay:10.37,2013-07-23 19:11:00,
2013-07-23 14:16:00,71.6,57.9,29.71,North,360,3.2,5.0,62,0.00,CLR,SKC,0.00,WeatherDisplay:10.37,2013-07-23 19:16:00,
2013-07-23 14:21:00,72.2,58.5,29.71,North,355,4.1,6.0,62,0.00,CLR,SKC,0.00,WeatherDisplay:10.37,2013-07-23 19:21:00,
2013-07-23 14:26:00,72.6,58.8,29.71,North,355,0.7,3.5,62,0.00,CLR,SKC,0.00,WeatherDisplay:10.37,2013-07-23 19:26:00,
2013-07-23 14:31:00,72.9,58.7,29.71,North,355,2.5,4.0,61,0.00,CLR,SKC,0.00,WeatherDisplay:10.37,2013-07-23 19:31:00,
2013-07-23 14:36:00,73.1,57.4,29.70,North,355,4.6,8.1,58,0.00,CLR,SKC,0.00,WeatherDisplay:10.37,2013-07-23 19:36:00,
2013-07-23 14:41:00,73.2,58.0,29.70,North,355,0.0,2.3,59,0.00,CLR,SKC,0.00,WeatherDisplay:10.37,2013-07-23 19:41:00,
2013-07-23 14:46:00,73.3,59.5,29.70,North,355,3.8,9.2,62,0.00,CLR,SKC,0.00,WeatherDisplay:10.37,2013-07-23 19:46:00,
2013-07-23 14:51:00,73.9,59.1,29.70,North,351,4.5,8.1,60,0.00,CLR,SKC,0.00,WeatherDisplay:10.37,2013-07-23 19:51:00,
2013-07-23 14:56:00,74.6,60.3,29.70,North,351,2.4,6.0,61,0.00,CLR,SKC,0.00,WeatherDisplay:10.37,2013-07-23 19:56:00,
2013-07-23 15:01:00,75.2,57.9,29.70,North,355,5.4,9.2,55,0.00,CLR,SKC,0.00,WeatherDisplay:10.37,2013-07-23 20:01:00,
2013-07-23 15:06:00,75.5,58.7,29.70,North,350,4.1,9.2,56,0.00,CLR,SKC,0.00,WeatherDisplay:10.37,2013-07-23 20:06:00,
2013-07-23 15:11:00,75.7,58.4,29.70,North,355,2.1,4.6,55,0.00,CLR,SKC,0.00,WeatherDisplay:10.37,2013-07-23 20:11:00,
2013-07-23 15:16:00,75.4,59.6,29.70,NNE,18,3.6,6.0,58,0.00,CLR,SKC,0.00,WeatherDisplay:10.37,2013-07-23 20:16:00,
2013-07-23 15:22:00,75.0,58.2,29.69,NNE,18,1.1,3.5,56,0.00,CLR,SKC,0.00,WeatherDisplay:10.37,2013-07-23 20:22:00,
2013-07-23 15:27:00,75.1,57.3,29.70,North,5,2.2,4.6,54,0.00,CLR,SKC,0.00,WeatherDisplay:10.37,2013-07-23 20:27:00,
2013-07-23 15:32:00,75.0,57.7,29.69,North,5,1.4,5.0,55,0.00,CLR,SKC,0.00,WeatherDisplay:10.37,2013-07-23 20:32:00,
2013-07-23 15:38:00,75.5,58.2,29.69,North,5,5.2,10.4,55,0.00,CLR,SKC,0.00,WeatherDisplay:10.37,2013-07-23 20:38:00,
2013-07-23 15:43:00,76.0,57.1,29.69,North,5,2.2,4.0,52,0.00,CLR,SKC,0.00,WeatherDisplay:10.37,2013-07-23 20:43:00,
2013-07-23 15:48:00,76.4,59.0,29.69,North,360,3.9,8.0,55,0.00,CLR,SKC,0.00,WeatherDisplay:10.37,2013-07-23 20:48:00,
2013-07-23 15:54:00,76.5,57.0,29.69,North,355,3.7,4.6,51,0.00,CLR,SKC,0.00,WeatherDisplay:10.37,2013-07-23 20:54:00,
2013-07-23 15:59:00,76.5,55.9,29.69,North,360,3.6,8.1,49,0.00,CLR,SKC,0.00,WeatherDisplay:10.37,2013-07-23 20:59:00,
2013-07-23 16:04:00,76.5,59.6,29.69,North,360,1.4,6.0,56,0.00,CLR,SKC,0.00,WeatherDisplay:10.37,2013-07-23 21:04:00,
2013-07-23 16:09:00,76.6,57.1,29.69,North,9,3.9,8.1,51,0.00,CLR,SKC,0.00,WeatherDisplay:10.37,2013-07-23 21:09:00,
2013-07-23 16:14:00,76.6,58.7,29.69,North,11,3.5,6.0,54,0.00,CLR,SKC,0.00,WeatherDisplay:10.37,2013-07-23 21:14:00,
2013-07-23 16:19:00,76.5,55.3,29.69,NE,35,2.6,6.9,48,0.00,CLR,SKC,0.00,WeatherDisplay:10.37,2013-07-23 21:19:00,
2013-07-23 16:25:00,75.8,54.7,29.69,North,5,3.1,9.2,48,0.00,CLR,SKC,0.00,WeatherDisplay:10.37,2013-07-23 21:25:00,
2013-07-23 16:30:00,75.6,55.1,29.69,NNW,346,5.7,8.0,49,0.00,CLR,SKC,0.00,WeatherDisplay:10.37,2013-07-23 21:30:00,
2013-07-23 16:35:00,75.8,54.1,29.69,NNE,28,3.4,6.9,47,0.00,CLR,SKC,0.00,WeatherDisplay:10.37,2013-07-23 21:35:00,
2013-07-23 16:40:00,75.5,56.1,29.69,North,360,4.8,8.1,51,0.00,CLR,SKC,0.00,WeatherDisplay:10.37,2013-07-23 21:40:00,
2013-07-23 16:46:00,75.8,54.1,29.69,North,10,4.0,6.9,47,0.00,CLR,SKC,0.00,WeatherDisplay:10.37,2013-07-23 21:46:00,
2013-07-23 16:52:00,75.8,55.8,29.69,North,355,3.8,8.1,50,0.00,CLR,SKC,0.00,WeatherDisplay:10.37,2013-07-23 21:52:00,
2013-07-23 16:57:00,76.0,55.5,29.69,North,5,3.5,7.0,49,0.00,CLR,SKC,0.00,WeatherDisplay:10.37,2013-07-23 21:57:00,
2013-07-23 17:02:00,75.7,55.7,29.69,North,355,4.4,8.1,50,0.00,CLR,SKC,0.00,WeatherDisplay:10.37,2013-07-23 22:02:00,
2013-07-23 17:07:00,75.8,56.4,29.69,North,350,5.4,7.0,51,0.00,CLR,SKC,0.00,WeatherDisplay:10.37,2013-07-23 22:07:00,
2013-07-23 17:12:00,75.5,54.4,29.69,North,5,5.5,8.1,48,0.00,CLR,SKC,0.00,WeatherDisplay:10.37,2013-07-23 22:12:00,
2013-07-23 17:17:00,75.1,55.2,29.69,North,5,4.3,6.9,50,0.00,CLR,SKC,0.00,WeatherDisplay:10.37,2013-07-23 22:17:00,
2013-07-23 17:22:00,74.8,54.9,29.69,North,355,4.6,8.1,50,0.00,CLR,SKC,0.00,WeatherDisplay:10.37,2013-07-23 22:22:00,
2013-07-23 17:28:00,74.6,55.8,29.69,North,355,3.4,6.0,52,0.00,CLR,SKC,0.00,WeatherDisplay:10.37,2013-07-23 22:28:00,
2013-07-23 17:33:00,74.4,55.6,29.69,North,355,4.0,7.0,52,0.00,CLR,SKC,0.00,WeatherDisplay:10.37,2013-07-23 22:33:00,
2013-07-23 17:38:00,74.3,55.5,29.69,North,355,4.3,7.0,52,0.00,CLR,SKC,0.00,WeatherDisplay:10.37,2013-07-23 22:38:00,
2013-07-23 17:43:00,74.1,55.3,29.69,North,355,4.6,8.1,52,0.00,CLR,SKC,0.00,WeatherDisplay:10.37,2013-07-23 22:43:00,
2013-07-23 17:48:00,74.2,55.4,29.69,North,351,4.5,9.2,52,0.00,CLR,SKC,0.00,WeatherDisplay:10.37,2013-07-23 22:48:00,
2013-07-23 17:53:00,74.4,55.6,29.69,North,350,1.6,6.0,52,0.00,CLR,SKC,0.00,WeatherDisplay:10.37,2013-07-23 22:53:00,
2013-07-23 17:58:00,74.7,55.9,29.69,North,350,3.4,7.0,52,0.00,CLR,SKC,0.00,WeatherDisplay:10.37,2013-07-23 22:58:00,
2013-07-23 18:03:00,75.1,56.8,29.69,North,351,3.3,5.0,53,0.00,CLR,SKC,0.00,WeatherDisplay:10.37,2013-07-23 23:03:00,
2013-07-23 18:08:00,75.3,55.4,29.69,North,355,3.1,6.9,50,0.00,CLR,SKC,0.00,WeatherDisplay:10.37,2013-07-23 23:08:00,
2013-07-23 18:13:00,75.3,56.5,29.69,North,355,4.3,7.0,52,0.00,CLR,SKC,0.00,WeatherDisplay:10.37,2013-07-23 23:13:00,
2013-07-23 18:18:00,75.0,55.6,29.70,North,360,4.6,8.1,51,0.00,CLR,SKC,0.00,WeatherDisplay:10.37,2013-07-23 23:18:00,
2013-07-23 18:23:00,74.6,55.8,29.70,North,355,2.9,5.8,52,0.00,CLR,SKC,0.00,WeatherDisplay:10.37,2013-07-23 23:23:00,
2013-07-23 18:28:00,74.4,56.7,29.69,North,355,3.4,5.8,54,0.00,CLR,SKC,0.00,WeatherDisplay:10.37,2013-07-23 23:28:00,
2013-07-23 18:34:00,74.5,56.8,29.70,North,355,5.2,10.4,54,0.00,CLR,SKC,0.00,WeatherDisplay:10.37,2013-07-23 23:34:00,
2013-07-23 18:39:00,74.4,56.2,29.70,North,360,2.3,6.0,53,0.00,CLR,SKC,0.00,WeatherDisplay:10.37,2013-07-23 23:39:00,
2013-07-23 18:44:00,74.5,57.3,29.70,North,355,2.6,4.0,55,0.00,CLR,SKC,0.00,WeatherDisplay:10.37,2013-07-23 23:44:00,
2013-07-23 18:50:00,74.6,57.9,29.70,North,355,0.8,2.3,56,0.00,CLR,SKC,0.00,WeatherDisplay:10.37,2013-07-23 23:50:00,
2013-07-23 18:55:00,74.7,58.0,29.70,North,355,2.4,4.6,56,0.00,CLR,SKC,0.00,WeatherDisplay:10.37,2013-07-23 23:55:00,
2013-07-23 19:00:00,74.7,57.5,29.70,North,355,0.5,3.5,55,0.00,CLR,SKC,0.00,WeatherDisplay:10.37,2013-07-24 00:00:00,
2013-07-23 19:05:00,74.4,57.2,29.70,North,355,0.4,2.0,55,0.00,CLR,SKC,0.00,WeatherDisplay:10.37,2013-07-24 00:05:00,
2013-07-23 19:10:00,73.5,55.8,29.70,North,355,2.9,8.1,54,0.00,CLR,SKC,0.00,WeatherDisplay:10.37,2013-07-24 00:10:00,
2013-07-23 19:16:00,72.9,56.3,29.70,North,355,2.4,4.0,56,0.00,CLR,SKC,0.00,WeatherDisplay:10.37,2013-07-24 00:16:00,
2013-07-23 19:22:00,72.2,55.6,29.70,North,355,0.8,3.5,56,0.00,CLR,SKC,0.00,WeatherDisplay:10.37,2013-07-24 00:22:00,
2013-07-23 19:27:00,71.8,55.7,29.71,North,355,1.0,3.5,57,0.00,CLR,SKC,0.00,WeatherDisplay:10.37,2013-07-24 00:27:00,
2013-07-23 19:32:00,71.5,55.9,29.71,North,355,2.7,4.0,58,0.00,CLR,SKC,0.00,WeatherDisplay:10.37,2013-07-24 00:32:00,
2013-07-23 19:37:00,71.2,56.6,29.71,North,355,1.1,3.5,60,0.00,CLR,SKC,0.00,WeatherDisplay:10.37,2013-07-24 00:37:00,
2013-07-23 19:42:00,70.9,56.3,29.71,North,355,0.6,2.3,60,0.00,CLR,SKC,0.00,WeatherDisplay:10.37,2013-07-24 00:42:00,
2013-07-23 19:47:00,70.6,56.5,29.71,North,355,0.4,2.3,61,0.00,CLR,SKC,0.00,WeatherDisplay:10.37,2013-07-24 00:47:00,
2013-07-23 19:52:00,70.3,56.2,29.71,North,355,1.6,6.9,61,0.00,CLR,SKC,0.00,WeatherDisplay:10.37,2013-07-24 00:52:00,
2013-07-23 19:57:00,70.1,56.9,29.71,North,355,0.7,3.5,63,0.00,CLR,SKC,0.00,WeatherDisplay:10.37,2013-07-24 00:57:00,
2013-07-23 20:02:00,69.8,56.6,29.71,North,355,2.2,3.5,63,0.00,CLR,SKC,0.00,WeatherDisplay:10.37,2013-07-24 01:02:00,
2013-07-23 20:07:00,69.5,56.8,29.71,North,355,0.1,2.3,64,0.00,CLR,SKC,0.00,WeatherDisplay:10.37,2013-07-24 01:07:00,
2013-07-23 20:12:00,69.3,57.0,29.71,North,355,0.5,3.5,65,0.00,CLR,SKC,0.00,WeatherDisplay:10.37,2013-07-24 01:12:00,
2013-07-23 20:18:00,69.0,57.2,29.72,North,355,1.1,3.5,66,0.00,CLR,SKC,0.00,WeatherDisplay:10.37,2013-07-24 01:18:00,
2013-07-23 20:23:00,68.7,57.3,29.72,North,355,0.5,3.0,67,0.00,CLR,SKC,0.00,WeatherDisplay:10.37,2013-07-24 01:23:00,
2013-07-23 20:28:00,68.3,57.3,29.72,North,355,2.9,4.0,68,0.00,CLR,SKC,0.00,WeatherDisplay:10.37,2013-07-24 01:28:00,
2013-07-23 20:33:00,67.9,56.9,29.72,North,355,2.7,5.0,68,0.00,CLR,SKC,0.00,WeatherDisplay:10.37,2013-07-24 01:33:00,
2013-07-23 20:39:00,67.6,57.1,29.72,North,355,1.7,3.0,69,0.00,CLR,SKC,0.00,WeatherDisplay:10.37,2013-07-24 01:39:00,
2013-07-23 20:45:00,67.2,57.1,29.72,North,355,0.7,2.3,70,0.00,CLR,SKC,0.00,WeatherDisplay:10.37,2013-07-24 01:45:00,
2013-07-23 20:50:00,66.9,56.8,29.72,North,355,1.9,3.5,70,0.00,CLR,SKC,0.00,WeatherDisplay:10.37,2013-07-24 01:50:00,
2013-07-23 20:55:00,66.5,56.8,29.72,North,355,1.3,2.3,71,0.00,CLR,SKC,0.00,WeatherDisplay:10.37,2013-07-24 01:55:00,
2013-07-23 21:00:00,66.2,56.5,29.72,North,355,1.2,2.3,71,0.00,CLR,SKC,0.00,WeatherDisplay:10.37,2013-07-24 02:00:00,
2013-07-23 21:05:00,66.0,56.3,29.72,North,355,1.6,3.5,71,0.00,CLR,SKC,0.00,WeatherDisplay:10.37,2013-07-24 02:05:00,
2013-07-23 21:10:00,65.8,56.1,29.72,North,355,2.3,3.5,71,0.00,CLR,SKC,0.00,WeatherDisplay:10.37,2013-07-24 02:10:00,
2013-07-23 21:15:00,65.6,55.9,29.73,North,355,2.0,3.5,71,0.00,CLR,SKC,0.00,WeatherDisplay:10.37,2013-07-24 02:15:00,
2013-07-23 21:20:00,65.5,56.2,29.73,North,355,1.1,3.5,72,0.00,CLR,SKC,0.00,WeatherDisplay:10.37,2013-07-24 02:20:00,
2013-07-23 21:25:00,65.4,56.1,29.73,North,355,0.4,2.3,72,0.00,CLR,SKC,0.00,WeatherDisplay:10.37,2013-07-24 02:25:00,
2013-07-23 21:31:00,65.2,56.3,29.73,North,355,1.1,2.3,73,0.00,CLR,SKC,0.00,WeatherDisplay:10.37,2013-07-24 02:31:00,
2013-07-23 21:36:00,65.1,56.2,29.73,North,355,1.8,3.5,73,0.00,CLR,SKC,0.00,WeatherDisplay:10.37,2013-07-24 02:36:00,
2013-07-23 21:41:00,65.0,56.1,29.73,North,355,2.1,3.5,73,0.00,CLR,SKC,0.00,WeatherDisplay:10.37,2013-07-24 02:41:00,
2013-07-23 21:46:00,64.8,56.3,29.73,North,355,1.1,3.5,74,0.00,CLR,SKC,0.00,WeatherDisplay:10.37,2013-07-24 02:46:00,
2013-07-23 21:51:00,64.7,56.2,29.73,North,355,1.6,3.5,74,0.00,CLR,SKC,0.00,WeatherDisplay:10.37,2013-07-24 02:51:00,
2013-07-23 21:57:00,64.4,55.9,29.74,North,355,1.6,2.3,74,0.00,CLR,SKC,0.00,WeatherDisplay:10.37,2013-07-24 02:57:00,
2013-07-23 22:02:00,64.3,55.8,29.74,North,355,0.0,1.2,74,0.00,CLR,SKC,0.00,WeatherDisplay:10.37,2013-07-24 03:02:00,
2013-07-23 22:07:00,64.1,55.6,29.74,North,355,0.6,2.3,74,0.00,CLR,SKC,0.00,WeatherDisplay:10.37,2013-07-24 03:07:00,
2013-07-23 22:12:00,63.9,55.4,29.74,North,355,0.3,1.2,74,0.00,CLR,SKC,0.00,WeatherDisplay:10.37,2013-07-24 03:12:00,
2013-07-23 22:17:00,63.8,55.4,29.74,North,355,0.3,1.2,74,0.00,CLR,SKC,0.00,WeatherDisplay:10.37,2013-07-24 03:17:00,
2013-07-23 22:22:00,63.5,55.1,29.74,North,355,0.2,1.2,74,0.00,CLR,SKC,0.00,WeatherDisplay:10.37,2013-07-24 03:22:00,
2013-07-23 22:27:00,63.3,54.9,29.74,North,355,0.1,1.2,74,0.00,CLR,SKC,0.00,WeatherDisplay:10.37,2013-07-24 03:27:00,
2013-07-23 22:33:00,63.1,55.0,29.74,North,355,0.1,1.2,75,0.00,CLR,SKC,0.00,WeatherDisplay:10.37,2013-07-24 03:33:00,
2013-07-23 22:38:00,63.0,54.9,29.74,North,355,0.0,1.2,75,0.00,CLR,SKC,0.00,WeatherDisplay:10.37,2013-07-24 03:38:00,
2013-07-23 22:44:00,63.0,54.9,29.75,North,355,0.0,0.0,75,0.00,CLR,SKC,0.00,WeatherDisplay:10.37,2013-07-24 03:44:00,
2013-07-23 22:49:00,62.9,54.9,29.74,North,355,0.0,0.0,75,0.00,CLR,SKC,0.00,WeatherDisplay:10.37,2013-07-24 03:49:00,
2013-07-23 22:54:00,62.8,54.8,29.75,North,355,0.0,0.0,75,0.00,CLR,SKC,0.00,WeatherDisplay:10.37,2013-07-24 03:54:00,
2013-07-23 22:59:00,62.7,54.7,29.75,North,355,0.0,0.0,75,0.00,CLR,SKC,0.00,WeatherDisplay:10.37,2013-07-24 03:59:00,
2013-07-23 23:01:00,62.7,54.7,29.75,North,355,0.0,0.0,75,0.00,CLR,SKC,0.00,WeatherDisplay:10.37,2013-07-24 04:01:00,
2013-07-23 23:02:00,62.6,54.6,29.75,North,355,0.0,0.0,75,0.00,CLR,SKC,0.00,WeatherDisplay:10.37,2013-07-24 04:02:00,
2013-07-23 23:04:00,62.6,54.6,29.75,North,355,0.0,1.2,75,0.00,CLR,SKC,0.00,WeatherDisplay:10.37,2013-07-24 04:04:00,
2013-07-23 23:05:00,62.5,54.5,29.75,North,355,0.0,1.2,75,0.00,CLR,SKC,0.00,WeatherDisplay:10.37,2013-07-24 04:05:00,
2013-07-23 23:09:00,62.3,54.3,29.75,North,355,0.0,0.0,75,0.00,CLR,SKC,0.00,WeatherDisplay:10.37,2013-07-24 04:09:00,
2013-07-23 23:14:00,62.1,54.4,29.75,North,355,0.0,0.0,76,0.00,CLR,SKC,0.00,WeatherDisplay:10.37,2013-07-24 04:14:00,
2013-07-23 23:19:00,61.8,54.2,29.75,North,355,0.0,0.0,76,0.00,CLR,SKC,0.00,WeatherDisplay:10.37,2013-07-24 04:19:00,
2013-07-23 23:24:00,61.3,53.7,29.75,North,355,0.0,0.0,76,0.00,CLR,SKC,0.00,WeatherDisplay:10.37,2013-07-24 04:24:00,
2013-07-23 23:29:00,60.9,53.3,29.75,North,355,0.0,0.0,76,0.00,CLR,SKC,0.00,WeatherDisplay:10.37,2013-07-24 04:29:00,
2013-07-23 23:34:00,60.7,53.1,29.75,North,355,0.0,0.0,76,0.00,CLR,SKC,0.00,WeatherDisplay:10.37,2013-07-24 04:34:00,
2013-07-23 23:39:00,60.4,52.8,29.75,North,355,0.0,0.0,76,0.00,CLR,SKC,0.00,WeatherDisplay:10.37,2013-07-24 04:39:00,
2013-07-23 23:44:00,60.4,52.8,29.75,North,355,0.0,0.0,76,0.00,CLR,SKC,0.00,WeatherDisplay:10.37,2013-07-24 04:44:00,
2013-07-23 23:49:00,60.3,52.7,29.75,North,355,0.0,0.0,76,0.00,CLR,SKC,0.00,WeatherDisplay:10.37,2013-07-24 04:49:00,
2013-07-23 23:54:00,60.2,52.2,29.76,North,355,0.0,0.0,75,0.00,CLR,SKC,0.00,WeatherDisplay:10.37,2013-07-24 04:54:00,
2013-07-23 23:59:00,60.0,52.1,29.76,North,355,0.0,0.0,75,0.00,CLR,SKC,0.00,WeatherDisplay:10.37,2013-07-24 04:59:00,